Time;durP1;ratioP1;P1;durP2;ratioP2;P2;SDS_P1;SDS_P2;PMS_P1;PMS_P2;Temp;Humidity;BMP_temperature;BMP_pressure;BME280_temperature;BME280_humidity;BME280_pressure;Samples;Min_cycle;Max_cycle;Signal;HPM_P1;HPM_P2
2022/03/16 00:01:53;;;;;;;18.35;13.63;;;10.20;99.90;;;;;;5086292;28;20052;-60
2022/03/16 00:04:20;;;;;;;17.27;12.43;;;10.20;99.90;;;;;;5089288;28;20419;-60
2022/03/16 00:06:47;;;;;;;20.88;13.82;;;10.20;99.90;;;;;;5090848;28;20044;-61
2022/03/16 00:09:14;;;;;;;21.80;13.75;;;10.20;99.90;;;;;;5087470;28;20540;-60
2022/03/16 00:11:41;;;;;;;20.40;14.05;;;10.20;99.90;;;;;;5070653;28;20377;-59
2022/03/16 00:14:07;;;;;;;21.90;13.32;;;10.20;99.90;;;;;;5090113;28;20101;-59
2022/03/16 00:16:34;;;;;;;19.55;13.52;;;10.20;99.90;;;;;;5071314;28;20338;-59
2022/03/16 00:19:01;;;;;;;20.67;13.40;;;10.20;99.90;;;;;;5087884;28;20127;-59
2022/03/16 00:21:28;;;;;;;18.25;13.50;;;10.20;99.90;;;;;;5069236;28;20071;-60
2022/03/16 00:23:55;;;;;;;20.77;13.43;;;10.20;99.90;;;;;;5070086;28;20391;-60
2022/03/16 00:26:21;;;;;;;22.48;13.95;;;10.10;99.90;;;;;;5053366;28;20075;-59
2022/03/16 00:28:48;;;;;;;20.05;13.82;;;10.10;99.90;;;;;;5087450;28;20135;-60
2022/03/16 00:31:15;;;;;;;21.33;14.00;;;10.10;99.90;;;;;;5053938;28;20070;-59
2022/03/16 00:33:42;;;;;;;22.92;14.30;;;10.00;99.90;;;;;;5089920;28;20044;-59
2022/03/16 00:36:09;;;;;;;24.23;14.20;;;10.00;99.90;;;;;;5090262;28;20664;-61
2022/03/16 00:38:35;;;;;;;20.90;13.73;;;10.00;99.90;;;;;;5090352;28;20044;-60
2022/03/16 00:41:03;;;;;;;19.63;14.55;;;10.00;99.90;;;;;;5090122;28;20044;-59
2022/03/16 00:43:29;;;;;;;24.92;14.57;;;10.00;99.90;;;;;;5079216;28;20152;-60
2022/03/16 00:45:56;;;;;;;19.50;13.43;;;9.90;99.90;;;;;;5090063;28;20089;-59
2022/03/16 00:48:23;;;;;;;20.40;14.32;;;9.90;99.90;;;;;;5072003;28;20528;-60
2022/03/16 00:50:50;;;;;;;23.00;14.43;;;9.90;99.90;;;;;;5090175;28;20054;-60
2022/03/16 00:53:17;;;;;;;21.55;14.23;;;9.90;99.90;;;;;;5090301;28;20071;-60
2022/03/16 00:55:44;;;;;;;22.80;15.50;;;9.80;99.90;;;;;;5072230;28;20052;-60
2022/03/16 00:58:10;;;;;;;24.85;14.77;;;9.80;99.90;;;;;;5089800;28;20085;-59
2022/03/16 01:00:37;;;;;;;20.38;14.88;;;9.90;99.90;;;;;;5090274;28;20102;-59
2022/03/16 01:03:04;;;;;;;20.73;14.52;;;9.80;99.90;;;;;;5089991;28;20155;-59
2022/03/16 01:05:31;;;;;;;22.08;14.10;;;9.80;99.90;;;;;;5090421;28;20549;-58
2022/03/16 01:07:58;;;;;;;24.45;14.73;;;9.80;99.90;;;;;;5090525;28;20167;-59
2022/03/16 01:10:25;;;;;;;23.33;14.93;;;9.70;99.90;;;;;;5089902;28;20501;-60
2022/03/16 01:12:53;;;;;;;25.52;14.07;;;9.70;99.90;;;;;;5070972;28;20107;-60
2022/03/16 01:15:23;;;;;;;21.95;15.10;;;9.70;99.90;;;;;;5090083;28;20052;-59
2022/03/16 01:17:50;;;;;;;19.80;14.98;;;9.70;99.90;;;;;;5089361;28;20036;-59
2022/03/16 01:20:18;;;;;;;21.60;14.48;;;9.70;99.90;;;;;;5089871;28;20637;-59
2022/03/16 01:22:45;;;;;;;18.85;14.85;;;9.60;99.90;;;;;;5087819;28;20109;-59
2022/03/16 01:25:12;;;;;;;20.23;14.10;;;9.70;99.90;;;;;;5088755;28;20323;-59
2022/03/16 01:27:38;;;;;;;21.17;15.43;;;9.70;99.90;;;;;;5089238;28;20052;-59
2022/03/16 01:30:06;;;;;;;20.33;14.98;;;9.60;99.90;;;;;;5089083;28;20078;-60
2022/03/16 01:32:33;;;;;;;22.63;14.55;;;9.60;99.90;;;;;;5089063;28;20044;-60
2022/03/16 01:34:59;;;;;;;20.88;14.82;;;9.60;99.90;;;;;;5071548;28;20083;-60
2022/03/16 01:37:26;;;;;;;23.35;15.32;;;9.60;99.90;;;;;;5089333;28;20350;-59
2022/03/16 01:39:53;;;;;;;21.50;15.65;;;9.60;99.90;;;;;;5089134;28;20090;-59
2022/03/16 01:42:20;;;;;;;22.70;14.88;;;9.60;99.90;;;;;;5089273;28;20085;-59
2022/03/16 01:44:51;;;;;;;22.65;14.27;;;9.60;99.90;;;;;;5088397;28;20487;-58
2022/03/16 01:47:20;;;;;;;18.98;15.32;;;9.70;99.90;;;;;;5089161;28;20090;-60
2022/03/16 01:49:47;;;;;;;21.15;15.73;;;9.70;99.90;;;;;;5088754;28;20053;-61
2022/03/16 01:52:16;;;;;;;23.13;16.63;;;9.80;99.90;;;;;;5089255;28;20085;-59
2022/03/16 01:54:43;;;;;;;25.35;15.65;;;9.80;99.90;;;;;;5071006;28;20078;-59
2022/03/16 01:57:10;;;;;;;23.73;16.58;;;9.80;99.90;;;;;;5089021;28;20066;-59
2022/03/16 01:59:37;;;;;;;21.60;15.45;;;9.80;99.90;;;;;;5088637;28;20521;-60
2022/03/16 02:02:05;;;;;;;27.35;16.95;;;9.90;99.90;;;;;;5086565;28;20120;-60
2022/03/16 02:04:32;;;;;;;22.10;16.08;;;9.90;99.90;;;;;;4734950;28;10000246;-59
2022/03/16 02:06:59;;;;;;;22.23;15.15;;;9.90;99.90;;;;;;5089059;28;20080;-59
2022/03/16 02:09:26;;;;;;;24.20;15.88;;;10.00;99.90;;;;;;5088397;28;20485;-60
2022/03/16 02:11:53;;;;;;;19.52;14.95;;;10.00;99.90;;;;;;5071058;28;20056;-59
2022/03/16 02:14:19;;;;;;;19.48;15.07;;;10.00;99.90;;;;;;5088656;28;20066;-58
2022/03/16 02:16:47;;;;;;;20.75;16.42;;;10.00;99.90;;;;;;5088358;28;20056;-59
2022/03/16 02:19:14;;;;;;;19.05;14.45;;;9.90;99.90;;;;;;5088430;28;20134;-58
2022/03/16 02:21:42;;;;;;;21.98;13.90;;;9.90;99.90;;;;;;5088562;28;20072;-58
2022/03/16 02:24:08;;;;;;;20.25;14.18;;;10.00;99.90;;;;;;5069954;28;20131;-58
2022/03/16 02:26:35;;;;;;;20.45;15.10;;;9.90;99.90;;;;;;5088353;28;20076;-58
2022/03/16 02:29:02;;;;;;;21.63;13.95;;;9.90;99.90;;;;;;5087817;28;20059;-59
2022/03/16 02:31:29;;;;;;;22.13;13.48;;;9.90;99.90;;;;;;5088274;28;20127;-59
2022/03/16 02:33:56;;;;;;;16.98;12.95;;;9.90;99.90;;;;;;5070188;28;20048;-58
2022/03/16 02:36:22;;;;;;;17.15;13.48;;;9.90;99.90;;;;;;5088066;28;20079;-58
2022/03/16 02:38:49;;;;;;;17.83;13.30;;;9.90;99.90;;;;;;5088700;28;20048;-59
2022/03/16 02:41:16;;;;;;;18.80;12.25;;;10.00;99.90;;;;;;5088344;28;20090;-59
2022/03/16 02:43:43;;;;;;;17.02;12.32;;;10.00;99.90;;;;;;5088406;28;20099;-58
2022/03/16 02:46:09;;;;;;;18.63;12.10;;;10.00;99.90;;;;;;5088552;28;20318;-59
2022/03/16 02:48:36;;;;;;;15.95;11.27;;;10.00;99.90;;;;;;5086651;28;20109;-59
2022/03/16 02:51:03;;;;;;;18.30;11.68;;;10.00;99.90;;;;;;5086872;28;20051;-58
2022/03/16 02:53:30;;;;;;;18.48;12.65;;;10.00;99.90;;;;;;5085192;28;20043;-61
2022/03/16 02:55:57;;;;;;;14.60;12.15;;;10.00;99.90;;;;;;5086407;28;20043;-58
2022/03/16 02:58:23;;;;;;;19.00;12.57;;;10.00;99.90;;;;;;5088255;28;20048;-61
2022/03/16 03:00:50;;;;;;;13.63;10.55;;;10.10;99.90;;;;;;5087612;28;20044;-58
2022/03/16 03:03:17;;;;;;;17.83;11.75;;;10.10;99.90;;;;;;5088279;28;20452;-59
2022/03/16 03:05:45;;;;;;;16.30;10.98;;;10.10;99.90;;;;;;5087904;28;20078;-58
2022/03/16 03:08:11;;;;;;;15.60;11.25;;;10.10;99.90;;;;;;5088467;28;20044;-59
2022/03/16 03:10:38;;;;;;;15.68;10.75;;;10.10;99.90;;;;;;5087128;28;20044;-59
2022/03/16 03:13:06;;;;;;;13.43;11.13;;;10.10;99.90;;;;;;5088399;28;20048;-58
2022/03/16 03:15:33;;;;;;;13.98;9.75;;;10.10;99.90;;;;;;5087981;28;20568;-58
2022/03/16 03:17:59;;;;;;;17.85;11.57;;;10.10;99.90;;;;;;5087928;28;20552;-58
2022/03/16 03:20:26;;;;;;;14.98;10.82;;;10.10;99.90;;;;;;5088367;28;20383;-59
2022/03/16 03:22:53;;;;;;;16.40;10.23;;;10.10;99.90;;;;;;5087982;28;20044;-59
2022/03/16 03:25:20;;;;;;;17.60;10.57;;;10.00;99.90;;;;;;5088368;28;20071;-59
2022/03/16 03:27:47;;;;;;;14.10;10.43;;;10.10;99.90;;;;;;5087764;28;20094;-58
2022/03/16 03:30:13;;;;;;;14.05;10.20;;;10.10;99.90;;;;;;5087571;28;20056;-59
2022/03/16 03:32:41;;;;;;;13.27;10.98;;;10.00;99.90;;;;;;5088060;28;20036;-60
2022/03/16 03:35:08;;;;;;;14.52;11.02;;;10.10;99.90;;;;;;5070411;28;20105;-59
2022/03/16 03:37:36;;;;;;;20.50;10.15;;;10.00;99.90;;;;;;5091161;28;20066;-60
2022/03/16 03:40:03;;;;;;;16.92;11.05;;;10.10;99.90;;;;;;5092057;28;20109;-60
2022/03/16 03:42:30;;;;;;;17.67;10.63;;;10.00;99.90;;;;;;5091192;28;20088;-58
2022/03/16 03:44:57;;;;;;;12.68;10.20;;;10.10;99.90;;;;;;5091514;28;20088;-59
2022/03/16 03:47:24;;;;;;;15.10;10.90;;;10.10;99.90;;;;;;5091837;28;20392;-60
2022/03/16 03:49:51;;;;;;;16.67;11.77;;;10.10;99.90;;;;;;5091483;28;20162;-58
2022/03/16 03:52:18;;;;;;;13.27;11.02;;;10.10;99.90;;;;;;5091088;28;20075;-59
2022/03/16 03:54:44;;;;;;;14.93;10.77;;;10.10;99.90;;;;;;5091595;28;20075;-59
2022/03/16 03:57:11;;;;;;;15.52;11.15;;;10.10;99.90;;;;;;5073075;28;20048;-59
2022/03/16 03:59:38;;;;;;;11.75;10.32;;;10.10;99.90;;;;;;5091656;28;20071;-58
2022/03/16 04:02:05;;;;;;;14.50;10.80;;;10.10;99.90;;;;;;5083648;28;20076;-60
2022/03/16 04:04:32;;;;;;;15.65;11.23;;;10.10;99.90;;;;;;5082538;28;20047;-59
2022/03/16 04:06:59;;;;;;;17.08;10.95;;;10.20;99.90;;;;;;5091292;28;20503;-59
2022/03/16 04:09:26;;;;;;;14.18;11.30;;;10.10;99.90;;;;;;5089436;28;20502;-59
2022/03/16 04:11:53;;;;;;;14.73;10.98;;;10.20;99.90;;;;;;5091327;28;20051;-59
2022/03/16 04:14:19;;;;;;;13.38;10.75;;;10.10;99.90;;;;;;5090489;28;20044;-60
2022/03/16 04:16:46;;;;;;;14.75;11.15;;;10.10;99.90;;;;;;5091166;28;20052;-59
2022/03/16 04:19:13;;;;;;;15.77;12.02;;;10.10;99.90;;;;;;5090504;28;20047;-60
2022/03/16 04:21:40;;;;;;;13.68;11.82;;;10.10;99.90;;;;;;5073094;28;20080;-59
2022/03/16 04:24:07;;;;;;;14.55;12.18;;;10.00;99.90;;;;;;5090563;28;20101;-59
2022/03/16 04:26:34;;;;;;;16.67;12.27;;;10.00;99.90;;;;;;5090842;28;20499;-59
2022/03/16 04:29:00;;;;;;;15.68;12.35;;;10.10;99.90;;;;;;5090054;28;20051;-59
2022/03/16 04:31:27;;;;;;;14.80;11.90;;;10.10;99.90;;;;;;5090617;28;20052;-59
2022/03/16 04:33:55;;;;;;;22.63;12.90;;;10.10;99.90;;;;;;5072194;28;20262;-57
2022/03/16 04:36:22;;;;;;;19.67;12.13;;;10.10;99.90;;;;;;5091247;28;20059;-59
2022/03/16 04:38:50;;;;;;;17.17;12.93;;;10.10;99.90;;;;;;5090169;28;20071;-58
2022/03/16 04:41:17;;;;;;;17.73;12.52;;;10.00;99.90;;;;;;5090980;28;20040;-59
2022/03/16 04:43:43;;;;;;;15.63;11.63;;;10.00;99.90;;;;;;5090218;28;20044;-59
2022/03/16 04:46:10;;;;;;;14.88;12.30;;;10.00;99.90;;;;;;5072507;28;20078;-59
2022/03/16 04:48:37;;;;;;;16.92;11.55;;;10.00;99.90;;;;;;5089035;28;20051;-58
2022/03/16 04:51:05;;;;;;;17.25;12.52;;;10.00;99.90;;;;;;5090181;28;20539;-58
2022/03/16 04:53:32;;;;;;;18.25;12.75;;;10.10;99.90;;;;;;5090392;28;20109;-59
2022/03/16 04:55:59;;;;;;;12.50;11.00;;;10.00;99.90;;;;;;5088871;28;20105;-59
2022/03/16 04:58:26;;;;;;;15.07;11.23;;;10.00;99.90;;;;;;5090286;28;20044;-59
2022/03/16 05:00:52;;;;;;;14.88;11.85;;;10.00;99.90;;;;;;5089880;28;20048;-59
2022/03/16 05:03:19;;;;;;;13.93;11.52;;;10.00;99.90;;;;;;5090445;28;20048;-58
2022/03/16 05:05:47;;;;;;;19.08;13.15;;;10.00;99.90;;;;;;5089808;28;20063;-58
2022/03/16 05:08:13;;;;;;;16.05;12.77;;;10.00;99.90;;;;;;5090366;28;20048;-59
2022/03/16 05:10:40;;;;;;;17.60;11.82;;;10.00;99.90;;;;;;5089827;28;20079;-63
2022/03/16 05:13:07;;;;;;;16.15;12.68;;;10.00;99.90;;;;;;5090252;28;20414;-59
2022/03/16 05:15:34;;;;;;;18.20;13.63;;;10.00;99.90;;;;;;5089464;28;20070;-58
2022/03/16 05:18:01;;;;;;;17.98;13.75;;;10.00;99.90;;;;;;5089662;28;20048;-59
2022/03/16 05:20:28;;;;;;;17.52;12.32;;;10.00;99.90;;;;;;5089489;28;20036;-59
2022/03/16 05:22:55;;;;;;;17.73;12.43;;;10.00;99.90;;;;;;5089669;28;20052;-60
2022/03/16 05:25:25;;;;;;;16.77;13.90;;;10.00;99.90;;;;;;5089560;28;20061;-59
2022/03/16 05:27:52;;;;;;;15.57;11.90;;;10.10;99.90;;;;;;5089516;28;20080;-60
2022/03/16 05:30:26;;;;;;;17.90;13.05;;;10.00;99.90;;;;;;5088961;28;20562;-59
2022/03/16 05:32:54;;;;;;;22.33;14.43;;;10.10;99.90;;;;;;5089577;28;20044;-59
2022/03/16 05:35:22;;;;;;;15.63;12.05;;;10.00;99.90;;;;;;5071358;28;20079;-59
2022/03/16 05:37:48;;;;;;;15.00;12.32;;;10.00;99.90;;;;;;5089348;28;20040;-60
2022/03/16 05:40:15;;;;;;;17.13;13.30;;;10.00;99.90;;;;;;5089568;28;20048;-59
2022/03/16 05:42:42;;;;;;;18.70;14.10;;;10.00;99.90;;;;;;5088365;28;20510;-59
2022/03/16 05:45:09;;;;;;;17.35;13.27;;;10.10;99.90;;;;;;5089369;28;20084;-58
2022/03/16 05:47:36;;;;;;;18.20;12.75;;;10.10;99.90;;;;;;5088805;28;20473;-59
2022/03/16 05:50:04;;;;;;;17.23;13.30;;;10.00;99.90;;;;;;5089293;28;20048;-59
2022/03/16 05:52:34;;;;;;;27.48;14.98;;;10.00;99.90;;;;;;5088644;28;20559;-58
2022/03/16 05:55:01;;;;;;;20.75;13.85;;;10.00;99.90;;;;;;5089203;28;20047;-58
2022/03/16 05:57:28;;;;;;;17.45;13.38;;;10.00;99.90;;;;;;5088293;28;20066;-58
2022/03/16 05:59:55;;;;;;;19.92;14.70;;;10.00;99.90;;;;;;5088506;28;20098;-58
2022/03/16 06:02:21;;;;;;;18.77;13.75;;;10.00;99.90;;;;;;5088293;28;20129;-58
2022/03/16 06:04:48;;;;;;;20.20;13.85;;;10.00;99.90;;;;;;5089030;28;20044;-59
2022/03/16 06:07:15;;;;;;;18.35;14.48;;;10.00;99.90;;;;;;5087572;28;20355;-59
2022/03/16 06:09:42;;;;;;;20.25;14.88;;;10.00;99.90;;;;;;5088619;28;20048;-58
2022/03/16 06:12:09;;;;;;;17.90;13.18;;;10.00;99.90;;;;;;5088294;28;20079;-60
2022/03/16 06:14:36;;;;;;;17.48;13.15;;;10.00;99.90;;;;;;5088875;28;20518;-60
2022/03/16 06:17:03;;;;;;;20.58;15.15;;;10.00;99.90;;;;;;5088210;28;20051;-60
2022/03/16 06:19:30;;;;;;;28.95;14.48;;;10.00;99.90;;;;;;5070364;28;20044;-60
2022/03/16 06:21:57;;;;;;;19.23;14.23;;;10.00;99.90;;;;;;5088342;28;20075;-59
2022/03/16 06:24:24;;;;;;;20.35;14.98;;;10.00;99.90;;;;;;5084634;28;20218;-59
2022/03/16 06:26:51;;;;;;;20.88;14.25;;;10.10;99.90;;;;;;5088420;28;20086;-59
2022/03/16 06:29:18;;;;;;;18.00;14.02;;;10.00;99.90;;;;;;5087922;28;20094;-59
2022/03/16 06:31:45;;;;;;;18.35;15.20;;;10.00;99.90;;;;;;5088566;28;20052;-58
2022/03/16 06:34:12;;;;;;;20.90;16.58;;;10.00;99.90;;;;;;5086921;28;20044;-59
2022/03/16 06:36:38;;;;;;;23.30;15.68;;;10.00;99.90;;;;;;5087776;28;20112;-60
2022/03/16 06:39:05;;;;;;;34.03;16.85;;;10.00;99.90;;;;;;5069507;28;20044;-58
2022/03/16 06:41:32;;;;;;;21.92;16.60;;;10.00;99.90;;;;;;5070328;28;20299;-58
2022/03/16 06:43:59;;;;;;;23.10;15.80;;;10.00;99.90;;;;;;5087719;28;20161;-59
2022/03/16 06:46:27;;;;;;;19.98;16.08;;;10.00;99.90;;;;;;5087854;28;20040;-59
2022/03/16 06:48:54;;;;;;;20.10;15.45;;;10.00;99.90;;;;;;5087620;28;20458;-58
2022/03/16 06:51:21;;;;;;;23.08;15.07;;;10.00;99.90;;;;;;5088034;28;20481;-59
2022/03/16 06:53:48;;;;;;;20.45;15.57;;;10.00;99.90;;;;;;5087556;28;20981;-59
2022/03/16 06:56:15;;;;;;;20.63;16.13;;;10.10;99.90;;;;;;5087943;28;20391;-60
2022/03/16 06:58:41;;;;;;;21.25;16.35;;;10.00;99.90;;;;;;5087720;28;20154;-60
2022/03/16 07:01:08;;;;;;;21.23;15.15;;;10.00;99.90;;;;;;5087890;28;20048;-59
2022/03/16 07:03:35;;;;;;;20.10;14.25;;;10.00;99.90;;;;;;5087836;28;20048;-59
2022/03/16 07:06:02;;;;;;;20.23;15.43;;;10.10;99.90;;;;;;5087072;28;20441;-59
2022/03/16 07:08:29;;;;;;;19.83;14.80;;;10.10;99.90;;;;;;5087821;28;20553;-59
2022/03/16 07:10:55;;;;;;;19.83;14.70;;;10.10;99.90;;;;;;5089404;28;20083;-60
2022/03/16 07:13:22;;;;;;;21.05;15.63;;;10.10;99.90;;;;;;5091777;28;20082;-60
2022/03/16 07:15:49;;;;;;;18.58;14.50;;;10.20;99.90;;;;;;5091391;28;20133;-61
2022/03/16 07:18:16;;;;;;;20.83;15.75;;;10.20;99.90;;;;;;5092048;28;20072;-60
2022/03/16 07:20:43;;;;;;;18.27;15.13;;;10.20;99.90;;;;;;5091390;28;20075;-60
2022/03/16 07:23:11;;;;;;;21.20;14.18;;;10.20;99.90;;;;;;5091258;28;20078;-60
2022/03/16 07:25:40;;;;;;;22.95;15.82;;;10.20;99.90;;;;;;5090843;28;20043;-60
2022/03/16 07:28:07;;;;;;;19.10;14.02;;;10.30;99.90;;;;;;5091590;28;20089;-60
2022/03/16 07:30:35;;;;;;;16.80;13.82;;;10.30;99.90;;;;;;5090812;28;20075;-60
2022/03/16 07:33:03;;;;;;;23.70;15.07;;;10.40;99.90;;;;;;5091148;28;20040;-59
2022/03/16 07:35:30;;;;;;;21.73;14.40;;;10.40;99.90;;;;;;5090388;28;20059;-60
2022/03/16 07:37:57;;;;;;;22.38;14.75;;;10.40;99.90;;;;;;5090822;28;20044;-59
2022/03/16 07:40:24;;;;;;;20.95;17.20;;;10.40;99.90;;;;;;5090411;28;20048;-59
2022/03/16 07:42:52;;;;;;;18.92;15.15;;;10.40;99.90;;;;;;5090719;28;20052;-59
2022/03/16 07:45:18;;;;;;;25.45;14.40;;;10.50;99.90;;;;;;5090863;28;20239;-60
2022/03/16 07:47:46;;;;;;;17.65;13.35;;;10.50;99.90;;;;;;5089488;28;20056;-59
2022/03/16 07:50:13;;;;;;;19.25;13.98;;;10.50;99.90;;;;;;5089978;28;20611;-59
2022/03/16 07:52:40;;;;;;;20.63;13.63;;;10.50;99.90;;;;;;5090159;28;20098;-59
2022/03/16 07:55:07;;;;;;;16.50;13.15;;;10.60;99.90;;;;;;5089801;28;20090;-59
2022/03/16 07:57:38;;;;;;;16.10;13.18;;;10.60;99.90;;;;;;5089621;28;20048;-59
2022/03/16 08:00:07;;;;;;;21.48;15.15;;;10.70;99.90;;;;;;5069678;28;20050;-60
2022/03/16 08:02:34;;;;;;;19.48;13.43;;;10.70;99.90;;;;;;5089318;28;20136;-57
2022/03/16 08:05:01;;;;;;;18.13;14.15;;;10.70;99.90;;;;;;5072141;28;20544;-58
2022/03/16 08:07:28;;;;;;;23.45;15.60;;;10.70;99.90;;;;;;5090148;28;20054;-58
2022/03/16 08:09:55;;;;;;;17.67;13.18;;;10.70;99.90;;;;;;5080630;28;20112;-59
2022/03/16 08:12:23;;;;;;;21.08;13.77;;;10.70;99.90;;;;;;5074228;28;20134;-59
2022/03/16 08:14:50;;;;;;;18.92;13.70;;;10.70;99.90;;;;;;5089229;28;20230;-60
2022/03/16 08:17:17;;;;;;;20.08;13.18;;;10.80;99.90;;;;;;5088838;28;20052;-61
2022/03/16 08:19:44;;;;;;;17.90;13.18;;;10.80;99.90;;;;;;5089860;28;20174;-60
2022/03/16 08:22:11;;;;;;;18.02;13.23;;;10.90;99.90;;;;;;5089545;28;20495;-60
2022/03/16 08:24:37;;;;;;;20.42;13.70;;;10.90;99.90;;;;;;5090145;28;20044;-60
2022/03/16 08:27:20;;;;;;;16.52;12.75;;;10.90;99.90;;;;;;5090236;28;20036;-58
2022/03/16 08:29:47;;;;;;;19.33;13.75;;;10.90;99.90;;;;;;5090071;28;20056;-58
2022/03/16 08:32:14;;;;;;;23.90;14.27;;;10.90;99.90;;;;;;5089602;28;20083;-59
2022/03/16 08:34:40;;;;;;;19.27;14.63;;;10.90;99.90;;;;;;5090154;28;20097;-60
2022/03/16 08:37:07;;;;;;;21.15;13.45;;;10.90;99.90;;;;;;5089557;28;20527;-59
2022/03/16 08:39:40;;;;;;;18.65;12.40;;;10.90;99.90;;;;;;5072406;28;20063;-60
2022/03/16 08:42:08;;;;;;;19.65;12.63;;;10.90;99.90;;;;;;5089253;28;20055;-59
2022/03/16 08:44:35;;;;;;;22.75;12.55;;;10.90;99.90;;;;;;5090156;28;20040;-59
2022/03/16 08:47:02;;;;;;;16.45;13.07;;;10.90;99.90;;;;;;5088403;28;20090;-58
2022/03/16 08:49:29;;;;;;;18.42;14.27;;;10.90;99.90;;;;;;5090024;28;20552;-58
2022/03/16 08:51:57;;;;;;;19.95;12.73;;;10.90;99.90;;;;;;5089394;28;20059;-59
2022/03/16 08:54:24;;;;;;;17.80;14.20;;;10.90;99.90;;;;;;5090119;28;20044;-57
2022/03/16 08:56:53;;;;;;;23.08;13.60;;;10.90;99.90;;;;;;5055636;28;20048;-58
2022/03/16 08:59:23;;;;;;;24.98;14.10;;;10.90;99.90;;;;;;5089491;28;20039;-58
2022/03/16 09:01:50;;;;;;;18.90;14.00;;;10.90;99.90;;;;;;5089845;28;20510;-60
2022/03/16 09:04:18;;;;;;;21.17;12.85;;;11.00;99.90;;;;;;5072089;28;20437;-58
2022/03/16 09:06:44;;;;;;;19.38;13.00;;;11.00;99.90;;;;;;5089709;28;20106;-59
2022/03/16 09:09:11;;;;;;;26.48;13.93;;;11.00;99.90;;;;;;5089314;28;20052;-58
2022/03/16 09:11:38;;;;;;;27.73;14.57;;;11.00;99.90;;;;;;5089739;28;20052;-57
2022/03/16 09:14:06;;;;;;;23.55;14.30;;;10.90;99.90;;;;;;5088905;28;20054;-60
2022/03/16 09:16:34;;;;;;;27.77;15.50;;;10.90;99.90;;;;;;5089052;28;20043;-60
2022/03/16 09:19:01;;;;;;;21.88;13.65;;;10.90;99.90;;;;;;5087401;28;20318;-61
2022/03/16 09:21:28;;;;;;;19.83;13.98;;;11.00;99.90;;;;;;5089543;28;20040;-59
2022/03/16 09:23:54;;;;;;;19.20;13.73;;;11.00;99.90;;;;;;5088932;28;20495;-55
2022/03/16 09:26:21;;;;;;;16.85;13.52;;;11.00;99.90;;;;;;5089584;28;20044;-58
2022/03/16 09:28:52;;;;;;;24.73;14.10;;;11.10;99.90;;;;;;5088980;28;20105;-59
2022/03/16 09:31:20;;;;;;;19.55;12.63;;;11.10;99.90;;;;;;5089507;28;20105;-58
2022/03/16 09:33:48;;;;;;;20.63;13.80;;;11.00;99.90;;;;;;5088871;28;20070;-58
2022/03/16 09:36:15;;;;;;;15.52;12.13;;;11.10;99.90;;;;;;5078428;28;20561;-56
2022/03/16 09:38:42;;;;;;;19.02;13.05;;;11.10;99.90;;;;;;5089249;28;20105;-59
2022/03/16 09:41:08;;;;;;;19.42;13.50;;;11.10;99.90;;;;;;5089218;28;20072;-58
2022/03/16 09:43:35;;;;;;;19.45;13.65;;;11.10;99.90;;;;;;5054840;28;20071;-60
2022/03/16 09:46:09;;;;;;;16.55;12.05;;;11.10;99.90;;;;;;5089255;28;20040;-58
2022/03/16 09:48:36;;;;;;;19.88;13.05;;;11.20;99.90;;;;;;5089102;28;20044;-59
2022/03/16 09:51:02;;;;;;;19.85;13.93;;;11.20;99.90;;;;;;5070997;28;20040;-60
2022/03/16 09:53:29;;;;;;;23.10;12.25;;;11.20;99.90;;;;;;5054550;28;20506;-57
2022/03/16 09:55:56;;;;;;;18.55;12.70;;;11.20;99.90;;;;;;5070446;28;20766;-58
2022/03/16 09:58:23;;;;;;;21.20;13.88;;;11.20;99.90;;;;;;5088939;28;20075;-58
2022/03/16 10:00:52;;;;;;;16.67;12.80;;;11.10;99.90;;;;;;5089037;28;20128;-59
2022/03/16 10:03:23;;;;;;;19.65;12.20;;;11.20;99.90;;;;;;5089315;28;20059;-57
2022/03/16 10:05:50;;;;;;;22.77;13.35;;;11.20;99.90;;;;;;5088836;28;20043;-59
2022/03/16 10:08:25;;;;;;;22.02;12.27;;;11.20;99.90;;;;;;5088866;28;20091;-59
2022/03/16 10:13:52;;;;;;;18.63;13.13;;;11.30;99.90;;;;;;5070621;28;20048;-58
2022/03/16 10:16:19;;;;;;;16.02;12.20;;;11.30;99.90;;;;;;5069956;28;20101;-61
2022/03/16 10:18:53;;;;;;;16.60;12.85;;;11.30;99.90;;;;;;5087218;28;20083;-58
2022/03/16 10:21:20;;;;;;;19.95;12.23;;;11.30;99.90;;;;;;5088339;28;20498;-58
2022/03/16 10:23:47;;;;;;;23.38;14.38;;;11.30;99.90;;;;;;5088864;28;20372;-57
2022/03/16 10:26:17;;;;;;;22.65;13.65;;;11.30;99.90;;;;;;5088620;28;20482;-58
2022/03/16 10:28:48;;;;;;;21.17;13.05;;;11.30;99.90;;;;;;5088462;28;20047;-58
2022/03/16 10:31:17;;;;;;;19.75;11.15;;;11.30;99.90;;;;;;5088127;28;20040;-58
2022/03/16 10:33:53;;;;;;;19.20;11.52;;;11.30;99.90;;;;;;5088262;28;20044;-61
2022/03/16 10:36:21;;;;;;;23.15;12.60;;;11.30;99.90;;;;;;5087863;28;20040;-56
2022/03/16 10:38:58;;;;;;;17.13;12.50;;;11.20;99.90;;;;;;5087518;28;20044;-58
2022/03/16 10:47:10;;;;;;;20.65;12.15;;;11.30;99.90;;;;;;5085430;28;20036;-57
2022/03/16 10:49:38;;;;;;;;;;;11.30;99.90;;;;;;5088649;28;20044;-58
2022/03/16 10:52:06;;;;;;;15.88;11.82;;;11.30;99.90;;;;;;5087638;28;20011;-58
2022/03/16 10:54:35;;;;;;;19.42;12.55;;;11.30;99.90;;;;;;5088229;28;20105;-57
2022/03/16 10:57:08;;;;;;;17.83;12.05;;;11.40;99.90;;;;;;5087284;28;20047;-56
2022/03/16 10:59:35;;;;;;;17.23;12.48;;;11.40;99.90;;;;;;5087899;28;20062;-54
2022/03/16 11:02:06;;;;;;;26.33;14.45;;;11.40;99.90;;;;;;5087267;28;20229;-54
2022/03/16 11:04:34;;;;;;;19.15;12.35;;;11.50;99.90;;;;;;5080025;28;20098;-60
2022/03/16 11:07:03;;;;;;;19.60;13.68;;;11.50;99.90;;;;;;5087842;28;20472;-58
2022/03/16 11:09:30;;;;;;;17.48;12.70;;;11.50;99.90;;;;;;5070262;28;20084;-58
2022/03/16 11:14:43;;;;;;;22.88;14.25;;;11.50;99.90;;;;;;5063429;28;20044;-59
2022/03/16 11:17:10;;;;;;;25.05;13.52;;;11.60;99.90;;;;;;5069478;28;20121;-57
2022/03/16 11:19:37;;;;;;;22.48;14.18;;;11.60;99.90;;;;;;5070256;28;20033;-58
2022/03/16 11:22:20;;;;;;;15.85;11.65;;;11.70;99.90;;;;;;5087829;28;20048;-59
2022/03/16 11:24:50;;;;;;;25.50;14.38;;;11.70;99.90;;;;;;5071055;28;20044;-55
2022/03/16 11:27:26;;;;;;;20.42;12.40;;;11.80;99.90;;;;;;5052798;28;20503;-58
2022/03/16 11:30:01;;;;;;;19.25;12.45;;;11.90;99.90;;;;;;5087862;28;20108;-58
2022/03/16 11:32:41;;;;;;;16.73;12.38;;;12.00;99.90;;;;;;5069969;28;20101;-56
2022/03/16 11:35:10;;;;;;;19.90;13.60;;;12.10;99.90;;;;;;5087936;28;20437;-58
2022/03/16 11:37:43;;;;;;;20.38;12.57;;;12.10;99.90;;;;;;5087201;28;20098;-57
2022/03/16 11:40:14;;;;;;;23.42;12.77;;;12.10;99.90;;;;;;5087537;28;20487;-57
2022/03/16 11:43:04;;;;;;;20.42;13.73;;;12.20;99.90;;;;;;5087612;28;20059;-57
2022/03/16 11:45:38;;;;;;;16.88;11.40;;;12.30;99.90;;;;;;5087070;28;20101;-58
2022/03/16 11:48:31;;;;;;;15.93;10.90;;;12.30;99.90;;;;;;5087141;28;20521;-60
2022/03/16 11:51:19;;;;;;;21.48;12.40;;;12.30;99.90;;;;;;5078518;28;20498;-57
2022/03/16 11:53:57;;;;;;;21.58;12.45;;;12.30;99.90;;;;;;5087765;28;20044;-58
2022/03/16 11:56:29;;;;;;;14.75;11.38;;;12.30;99.90;;;;;;5069547;28;20044;-56
2022/03/16 11:59:00;;;;;;;16.65;11.32;;;12.20;99.90;;;;;;5091195;28;20070;-58
2022/03/16 12:01:34;;;;;;;22.77;12.38;;;12.20;99.90;;;;;;5054099;28;20403;-58
2022/03/16 12:04:19;;;;;;;15.43;12.10;;;12.20;99.90;;;;;;5081215;28;20097;-59
2022/03/16 12:07:05;;;;;;;19.67;12.70;;;12.20;99.90;;;;;;5091435;28;20514;-58
2022/03/16 12:09:32;;;;;;;20.45;13.57;;;12.10;99.90;;;;;;5091467;28;20113;-57
2022/03/16 12:12:51;;;;;;;18.80;12.82;;;12.20;99.90;;;;;;5091451;28;20050;-59
2022/03/16 12:15:29;;;;;;;17.02;11.88;;;12.20;99.90;;;;;;5090747;28;20150;-58
2022/03/16 12:17:58;;;;;;;20.00;12.27;;;12.30;99.90;;;;;;5057915;28;20079;-58
2022/03/16 12:20:26;;;;;;;17.25;12.52;;;12.30;99.90;;;;;;5090938;28;20052;-60
2022/03/16 12:22:56;;;;;;;22.52;12.38;;;12.30;99.90;;;;;;5091275;28;20079;-57
2022/03/16 12:25:27;;;;;;;19.90;12.32;;;12.30;99.90;;;;;;5090573;28;20048;-57
2022/03/16 12:30:58;;;;;;;16.15;11.80;;;12.30;99.90;;;;;;5090252;28;20678;-58
2022/03/16 12:33:42;;;;;;;18.60;14.00;;;12.20;99.90;;;;;;5074187;28;20407;-57
2022/03/16 12:36:13;;;;;;;19.58;13.07;;;12.20;99.90;;;;;;5089920;28;20040;-57
2022/03/16 12:38:44;;;;;;;21.45;11.82;;;12.20;99.90;;;;;;5070706;28;20048;-56
2022/03/16 12:43:58;;;;;;;20.05;13.38;;;12.20;99.90;;;;;;5073608;28;20492;-58
2022/03/16 12:46:28;;;;;;;25.10;13.98;;;12.20;99.90;;;;;;5089986;28;20102;-59
2022/03/16 12:48:57;;;;;;;19.52;14.13;;;12.20;99.90;;;;;;5072526;28;20112;-58
2022/03/16 12:51:43;;;;;;;17.83;13.55;;;12.10;99.90;;;;;;5089752;28;20514;-58